sensor_id;sensor_type;location;lat;lon;timestamp;pressure;altitude;pressure_sealevel;temperature
67966;BMP280;54749;47.850;9.002;2023-09-19T00:01:53;95702.50;;;14.94
67966;BMP280;54749;47.850;9.002;2023-09-19T00:04:20;95699.19;;;14.93
67966;BMP280;54749;47.850;9.002;2023-09-19T00:06:51;95706.16;;;14.91
67966;BMP280;54749;47.850;9.002;2023-09-19T00:09:20;95706.94;;;14.92
67966;BMP280;54749;47.850;9.002;2023-09-19T00:11:49;95713.47;;;14.94
67966;BMP280;54749;47.850;9.002;2023-09-19T00:14:16;95710.13;;;14.94
67966;BMP280;54749;47.850;9.002;2023-09-19T00:16:44;95705.03;;;14.94
67966;BMP280;54749;47.850;9.002;2023-09-19T00:19:13;95707.44;;;14.95
67966;BMP280;54749;47.850;9.002;2023-09-19T00:21:41;95700.63;;;14.96
67966;BMP280;54749;47.850;9.002;2023-09-19T00:24:08;95689.19;;;15.00
67966;BMP280;54749;47.850;9.002;2023-09-19T00:26:36;95705.75;;;15.04
67966;BMP280;54749;47.850;9.002;2023-09-19T00:29:03;95698.78;;;15.06
67966;BMP280;54749;47.850;9.002;2023-09-19T00:31:30;95712.16;;;15.07
67966;BMP280;54749;47.850;9.002;2023-09-19T00:33:57;95713.75;;;15.08
67966;BMP280;54749;47.850;9.002;2023-09-19T00:36:27;95719.78;;;15.07
67966;BMP280;54749;47.850;9.002;2023-09-19T00:38:55;95707.06;;;15.07
67966;BMP280;54749;47.850;9.002;2023-09-19T00:41:22;95712.97;;;15.08
67966;BMP280;54749;47.850;9.002;2023-09-19T00:43:50;95713.75;;;15.08
67966;BMP280;54749;47.850;9.002;2023-09-19T00:46:19;95721.25;;;15.10
67966;BMP280;54749;47.850;9.002;2023-09-19T00:48:46;95710.28;;;15.09
67966;BMP280;54749;47.850;9.002;2023-09-19T00:51:14;95720.47;;;15.09
67966;BMP280;54749;47.850;9.002;2023-09-19T00:53:43;95707.72;;;15.09
67966;BMP280;54749;47.850;9.002;2023-09-19T00:56:14;95719.00;;;15.07
67966;BMP280;54749;47.850;9.002;2023-09-19T00:58:46;95708.97;;;15.06
67966;BMP280;54749;47.850;9.002;2023-09-19T01:01:14;95714.34;;;15.03
67966;BMP280;54749;47.850;9.002;2023-09-19T01:03:44;95719.06;;;14.98
67966;BMP280;54749;47.850;9.002;2023-09-19T01:06:12;95717.63;;;14.95
67966;BMP280;54749;47.850;9.002;2023-09-19T01:08:40;95726.06;;;14.96
67966;BMP280;54749;47.850;9.002;2023-09-19T01:17:03;95735.88;;;14.91
67966;BMP280;54749;47.850;9.002;2023-09-19T01:27:42;95752.63;;;14.93
67966;BMP280;54749;47.850;9.002;2023-09-19T01:30:17;95750.06;;;14.93
67966;BMP280;54749;47.850;9.002;2023-09-19T01:32:50;95752.31;;;14.96
67966;BMP280;54749;47.850;9.002;2023-09-19T01:35:19;95736.75;;;14.99
67966;BMP280;54749;47.850;9.002;2023-09-19T01:37:46;95733.91;;;15.02
67966;BMP280;54749;47.850;9.002;2023-09-19T01:40:18;95728.53;;;15.05
67966;BMP280;54749;47.850;9.002;2023-09-19T01:45:51;95729.34;;;15.06
67966;BMP280;54749;47.850;9.002;2023-09-19T01:48:38;95729.34;;;15.06
67966;BMP280;54749;47.850;9.002;2023-09-19T01:51:09;95730.41;;;15.03
67966;BMP280;54749;47.850;9.002;2023-09-19T01:53:45;95748.03;;;14.97
67966;BMP280;54749;47.850;9.002;2023-09-19T01:56:22;95746.72;;;14.93
67966;BMP280;54749;47.850;9.002;2023-09-19T01:58:53;95741.25;;;14.88
67966;BMP280;54749;47.850;9.002;2023-09-19T02:01:24;95748.50;;;14.83
67966;BMP280;54749;47.850;9.002;2023-09-19T02:03:54;95754.97;;;14.78
67966;BMP280;54749;47.850;9.002;2023-09-19T02:06:21;95772.13;;;14.76
67966;BMP280;54749;47.850;9.002;2023-09-19T02:08:51;95753.16;;;14.71
67966;BMP280;54749;47.850;9.002;2023-09-19T02:11:18;95767.31;;;14.73
67966;BMP280;54749;47.850;9.002;2023-09-19T02:13:46;95762.38;;;14.72
67966;BMP280;54749;47.850;9.002;2023-09-19T02:16:16;95754.09;;;14.70
67966;BMP280;54749;47.850;9.002;2023-09-19T02:18:44;95761.22;;;14.66
67966;BMP280;54749;47.850;9.002;2023-09-19T02:21:11;95769.66;;;14.67
67966;BMP280;54749;47.850;9.002;2023-09-19T02:23:39;95763.09;;;14.64
67966;BMP280;54749;47.850;9.002;2023-09-19T02:26:08;95768.84;;;14.66
67966;BMP280;54749;47.850;9.002;2023-09-19T02:28:35;95768.41;;;14.71
67966;BMP280;54749;47.850;9.002;2023-09-19T02:31:02;95780.53;;;14.76
67966;BMP280;54749;47.850;9.002;2023-09-19T02:33:33;95775.81;;;14.81
67966;BMP280;54749;47.850;9.002;2023-09-19T02:36:00;95771.78;;;14.88
67966;BMP280;54749;47.850;9.002;2023-09-19T02:38:31;95775.53;;;14.93
67966;BMP280;54749;47.850;9.002;2023-09-19T02:40:58;95761.25;;;15.00
67966;BMP280;54749;47.850;9.002;2023-09-19T02:43:26;95768.47;;;15.05
67966;BMP280;54749;47.850;9.002;2023-09-19T02:45:54;95775.53;;;15.10
67966;BMP280;54749;47.850;9.002;2023-09-19T02:48:22;95777.75;;;15.13
67966;BMP280;54749;47.850;9.002;2023-09-19T02:50:49;95758.69;;;15.17
67966;BMP280;54749;47.850;9.002;2023-09-19T02:53:17;95772.72;;;15.21
67966;BMP280;54749;47.850;9.002;2023-09-19T02:55:44;95763.03;;;15.24
67966;BMP280;54749;47.850;9.002;2023-09-19T02:58:11;95766.13;;;15.28
67966;BMP280;54749;47.850;9.002;2023-09-19T03:00:39;95752.16;;;15.32
67966;BMP280;54749;47.850;9.002;2023-09-19T03:03:09;95759.34;;;15.36
67966;BMP280;54749;47.850;9.002;2023-09-19T03:05:36;95759.84;;;15.40
67966;BMP280;54749;47.850;9.002;2023-09-19T03:08:05;95752.81;;;15.42
67966;BMP280;54749;47.850;9.002;2023-09-19T03:10:33;95752.56;;;15.44
67966;BMP280;54749;47.850;9.002;2023-09-19T03:13:01;95760.03;;;15.46
67966;BMP280;54749;47.850;9.002;2023-09-19T03:15:29;95762.44;;;15.47
67966;BMP280;54749;47.850;9.002;2023-09-19T03:17:57;95759.56;;;15.50
67966;BMP280;54749;47.850;9.002;2023-09-19T03:20:25;95745.09;;;15.51
67966;BMP280;54749;47.850;9.002;2023-09-19T03:22:54;95749.38;;;15.50
67966;BMP280;54749;47.850;9.002;2023-09-19T03:25:22;95756.91;;;15.52
67966;BMP280;54749;47.850;9.002;2023-09-19T03:27:51;95761.31;;;15.50
67966;BMP280;54749;47.850;9.002;2023-09-19T03:30:20;95768.47;;;15.46
67966;BMP280;54749;47.850;9.002;2023-09-19T03:32:49;95771.47;;;15.42
67966;BMP280;54749;47.850;9.002;2023-09-19T03:35:18;95770.31;;;15.37
67966;BMP280;54749;47.850;9.002;2023-09-19T03:37:46;95763.28;;;15.31
67966;BMP280;54749;47.850;9.002;2023-09-19T03:40:14;95757.50;;;15.29
67966;BMP280;54749;47.850;9.002;2023-09-19T03:42:43;95756.72;;;15.28
67966;BMP280;54749;47.850;9.002;2023-09-19T03:45:12;95761.16;;;15.26
67966;BMP280;54749;47.850;9.002;2023-09-19T03:47:46;95757.69;;;15.27
67966;BMP280;54749;47.850;9.002;2023-09-19T03:50:16;95759.91;;;15.30
67966;BMP280;54749;47.850;9.002;2023-09-19T03:52:45;95769.97;;;15.32
67966;BMP280;54749;47.850;9.002;2023-09-19T03:55:12;95768.72;;;15.36
67966;BMP280;54749;47.850;9.002;2023-09-19T03:57:40;95768.41;;;15.39
67966;BMP280;54749;47.850;9.002;2023-09-19T04:00:08;95765.56;;;15.42
67966;BMP280;54749;47.850;9.002;2023-09-19T04:02:40;95750.00;;;15.44
67966;BMP280;54749;47.850;9.002;2023-09-19T04:05:08;95758.13;;;15.48
67966;BMP280;54749;47.850;9.002;2023-09-19T04:07:36;95743.34;;;15.51
67966;BMP280;54749;47.850;9.002;2023-09-19T04:10:03;95753.66;;;15.67
67966;BMP280;54749;47.850;9.002;2023-09-19T04:12:31;95748.66;;;15.82
67966;BMP280;54749;47.850;9.002;2023-09-19T04:15:00;95758.88;;;15.90
67966;BMP280;54749;47.850;9.002;2023-09-19T04:17:28;95752.44;;;16.03
67966;BMP280;54749;47.850;9.002;2023-09-19T04:19:55;95758.00;;;15.99
67966;BMP280;54749;47.850;9.002;2023-09-19T04:22:22;95754.16;;;15.95
67966;BMP280;54749;47.850;9.002;2023-09-19T04:24:50;95761.94;;;15.94
67966;BMP280;54749;47.850;9.002;2023-09-19T04:27:17;95759.25;;;15.95
67966;BMP280;54749;47.850;9.002;2023-09-19T04:29:45;95759.41;;;15.94
67966;BMP280;54749;47.850;9.002;2023-09-19T04:32:12;95757.81;;;15.93
67966;BMP280;54749;47.850;9.002;2023-09-19T04:34:40;95761.94;;;15.94
67966;BMP280;54749;47.850;9.002;2023-09-19T04:37:07;95767.84;;;15.94
67966;BMP280;54749;47.850;9.002;2023-09-19T04:39:34;95762.75;;;15.94
67966;BMP280;54749;47.850;9.002;2023-09-19T04:42:01;95779.94;;;15.92
67966;BMP280;54749;47.850;9.002;2023-09-19T04:44:30;95780.31;;;15.97
67966;BMP280;54749;47.850;9.002;2023-09-19T04:46:57;95778.41;;;15.99
67966;BMP280;54749;47.850;9.002;2023-09-19T04:49:24;95784.44;;;15.98
67966;BMP280;54749;47.850;9.002;2023-09-19T04:51:52;95770.13;;;15.97
67966;BMP280;54749;47.850;9.002;2023-09-19T04:54:19;95778.84;;;15.95
67966;BMP280;54749;47.850;9.002;2023-09-19T04:56:46;95773.44;;;15.97
67966;BMP280;54749;47.850;9.002;2023-09-19T04:59:13;95791.53;;;16.12
67966;BMP280;54749;47.850;9.002;2023-09-19T05:01:42;95793.13;;;16.13
67966;BMP280;54749;47.850;9.002;2023-09-19T05:04:09;95794.41;;;16.09
67966;BMP280;54749;47.850;9.002;2023-09-19T05:06:36;95792.94;;;16.06
67966;BMP280;54749;47.850;9.002;2023-09-19T05:09:03;95801.72;;;16.12
67966;BMP280;54749;47.850;9.002;2023-09-19T05:11:32;95796.63;;;16.12
67966;BMP280;54749;47.850;9.002;2023-09-19T05:14:00;95795.03;;;16.11
67966;BMP280;54749;47.850;9.002;2023-09-19T05:16:31;95808.75;;;16.10
67966;BMP280;54749;47.850;9.002;2023-09-19T05:19:01;95815.13;;;16.13
67966;BMP280;54749;47.850;9.002;2023-09-19T05:21:30;95813.53;;;16.13
67966;BMP280;54749;47.850;9.002;2023-09-19T05:23:57;95809.72;;;16.16
67966;BMP280;54749;47.850;9.002;2023-09-19T05:26:25;95805.28;;;16.18
67966;BMP280;54749;47.850;9.002;2023-09-19T05:28:52;95815.31;;;16.20
67966;BMP280;54749;47.850;9.002;2023-09-19T05:31:20;95808.47;;;16.20
67966;BMP280;54749;47.850;9.002;2023-09-19T05:33:47;95820.94;;;16.23
67966;BMP280;54749;47.850;9.002;2023-09-19T05:36:14;95822.84;;;16.29
67966;BMP280;54749;47.850;9.002;2023-09-19T05:38:43;95817.50;;;16.40
67966;BMP280;54749;47.850;9.002;2023-09-19T05:41:11;95824.88;;;16.50
67966;BMP280;54749;47.850;9.002;2023-09-19T05:43:40;95815.03;;;16.63
67966;BMP280;54749;47.850;9.002;2023-09-19T05:46:09;95825.91;;;16.73
67966;BMP280;54749;47.850;9.002;2023-09-19T05:48:36;95805.22;;;16.83
67966;BMP280;54749;47.850;9.002;2023-09-19T05:51:04;95803.63;;;16.83
67966;BMP280;54749;47.850;9.002;2023-09-19T05:53:32;95807.94;;;16.90
67966;BMP280;54749;47.850;9.002;2023-09-19T05:55:59;95803.06;;;17.04
67966;BMP280;54749;47.850;9.002;2023-09-19T05:58:27;95805.00;;;17.72
67966;BMP280;54749;47.850;9.002;2023-09-19T06:00:55;95797.81;;;18.52
67966;BMP280;54749;47.850;9.002;2023-09-19T06:03:22;95794.19;;;19.06
67966;BMP280;54749;47.850;9.002;2023-09-19T06:05:50;95778.47;;;19.74
67966;BMP280;54749;47.850;9.002;2023-09-19T06:08:18;95780.34;;;20.44
67966;BMP280;54749;47.850;9.002;2023-09-19T06:10:46;95761.88;;;21.38
67966;BMP280;54749;47.850;9.002;2023-09-19T06:13:13;95764.06;;;22.09
67966;BMP280;54749;47.850;9.002;2023-09-19T06:15:41;95790.91;;;22.99
67966;BMP280;54749;47.850;9.002;2023-09-19T06:18:11;95759.34;;;23.81
67966;BMP280;54749;47.850;9.002;2023-09-19T06:20:41;95762.16;;;24.11
67966;BMP280;54749;47.850;9.002;2023-09-19T06:23:12;95754.19;;;24.12
67966;BMP280;54749;47.850;9.002;2023-09-19T06:25:39;95769.63;;;24.44
67966;BMP280;54749;47.850;9.002;2023-09-19T06:28:07;95764.88;;;24.41
67966;BMP280;54749;47.850;9.002;2023-09-19T06:30:37;95784.72;;;24.47
67966;BMP280;54749;47.850;9.002;2023-09-19T06:33:07;95775.81;;;24.30
67966;BMP280;54749;47.850;9.002;2023-09-19T06:35:34;95782.56;;;24.31
67966;BMP280;54749;47.850;9.002;2023-09-19T06:38:04;95781.59;;;24.20
67966;BMP280;54749;47.850;9.002;2023-09-19T06:40:34;95808.19;;;23.82
67966;BMP280;54749;47.850;9.002;2023-09-19T06:43:01;95801.41;;;23.56
67966;BMP280;54749;47.850;9.002;2023-09-19T06:45:29;95814.00;;;23.19
67966;BMP280;54749;47.850;9.002;2023-09-19T06:47:56;95816.22;;;22.77
67966;BMP280;54749;47.850;9.002;2023-09-19T06:50:26;95823.28;;;22.62
67966;BMP280;54749;47.850;9.002;2023-09-19T06:52:55;95818.16;;;22.42
67966;BMP280;54749;47.850;9.002;2023-09-19T06:55:25;95835.06;;;22.50
67966;BMP280;54749;47.850;9.002;2023-09-19T06:57:55;95826.91;;;22.47
67966;BMP280;54749;47.850;9.002;2023-09-19T07:00:23;95829.78;;;22.31
67966;BMP280;54749;47.850;9.002;2023-09-19T07:02:56;95835.06;;;22.83
67966;BMP280;54749;47.850;9.002;2023-09-19T07:05:24;95812.00;;;23.99
67966;BMP280;54749;47.850;9.002;2023-09-19T07:07:52;95820.53;;;24.37
67966;BMP280;54749;47.850;9.002;2023-09-19T07:10:19;95809.63;;;24.10
67966;BMP280;54749;47.850;9.002;2023-09-19T07:12:47;95823.31;;;24.29
67966;BMP280;54749;47.850;9.002;2023-09-19T07:15:14;95817.38;;;24.10
67966;BMP280;54749;47.850;9.002;2023-09-19T07:17:41;95815.72;;;23.58
67966;BMP280;54749;47.850;9.002;2023-09-19T07:20:09;95809.38;;;24.43
67966;BMP280;54749;47.850;9.002;2023-09-19T07:22:37;95813.81;;;25.47
67966;BMP280;54749;47.850;9.002;2023-09-19T07:25:07;95806.91;;;26.49
67966;BMP280;54749;47.850;9.002;2023-09-19T07:27:34;95795.00;;;27.29
67966;BMP280;54749;47.850;9.002;2023-09-19T07:30:01;95774.63;;;28.35
67966;BMP280;54749;47.850;9.002;2023-09-19T07:32:28;95777.25;;;29.07
67966;BMP280;54749;47.850;9.002;2023-09-19T07:34:57;95781.78;;;29.50
67966;BMP280;54749;47.850;9.002;2023-09-19T07:37:24;95783.00;;;30.87
67966;BMP280;54749;47.850;9.002;2023-09-19T07:39:53;95774.44;;;31.33
67966;BMP280;54749;47.850;9.002;2023-09-19T07:42:21;95745.00;;;31.89
67966;BMP280;54749;47.850;9.002;2023-09-19T07:44:48;95752.00;;;32.85
67966;BMP280;54749;47.850;9.002;2023-09-19T07:47:17;95760.19;;;32.98
67966;BMP280;54749;47.850;9.002;2023-09-19T07:49:46;95743.13;;;33.75
67966;BMP280;54749;47.850;9.002;2023-09-19T07:52:15;95754.97;;;34.12
67966;BMP280;54749;47.850;9.002;2023-09-19T07:54:42;95743.97;;;33.80
67966;BMP280;54749;47.850;9.002;2023-09-19T07:57:11;95758.59;;;33.62
67966;BMP280;54749;47.850;9.002;2023-09-19T07:59:38;95783.97;;;32.87
67966;BMP280;54749;47.850;9.002;2023-09-19T08:02:08;95791.81;;;32.52
67966;BMP280;54749;47.850;9.002;2023-09-19T08:04:43;95800.09;;;32.74
67966;BMP280;54749;47.850;9.002;2023-09-19T08:07:10;95806.91;;;31.16
67966;BMP280;54749;47.850;9.002;2023-09-19T08:09:38;95806.44;;;30.18
67966;BMP280;54749;47.850;9.002;2023-09-19T08:12:06;95800.75;;;31.68
67966;BMP280;54749;47.850;9.002;2023-09-19T08:14:35;95780.03;;;33.40
67966;BMP280;54749;47.850;9.002;2023-09-19T08:17:02;95788.03;;;33.83
67966;BMP280;54749;47.850;9.002;2023-09-19T08:19:29;95783.84;;;33.97
67966;BMP280;54749;47.850;9.002;2023-09-19T08:21:59;95789.09;;;34.50
67966;BMP280;54749;47.850;9.002;2023-09-19T08:24:27;95786.84;;;35.30
67966;BMP280;54749;47.850;9.002;2023-09-19T08:26:56;95789.59;;;34.91
67966;BMP280;54749;47.850;9.002;2023-09-19T08:29:25;95787.28;;;35.52
67966;BMP280;54749;47.850;9.002;2023-09-19T08:31:55;95790.06;;;36.77
67966;BMP280;54749;47.850;9.002;2023-09-19T08:34:26;95791.41;;;37.02
67966;BMP280;54749;47.850;9.002;2023-09-19T08:36:54;95786.13;;;37.02
67966;BMP280;54749;47.850;9.002;2023-09-19T08:39:25;95797.81;;;36.36
67966;BMP280;54749;47.850;9.002;2023-09-19T08:41:59;95815.19;;;35.95
67966;BMP280;54749;47.850;9.002;2023-09-19T08:44:28;95842.66;;;34.15
67966;BMP280;54749;47.850;9.002;2023-09-19T08:47:09;95880.59;;;31.55
67966;BMP280;54749;47.850;9.002;2023-09-19T08:49:43;95882.66;;;30.20
67966;BMP280;54749;47.850;9.002;2023-09-19T08:52:36;95898.41;;;28.87
67966;BMP280;54749;47.850;9.002;2023-09-19T08:55:06;95914.34;;;27.99
67966;BMP280;54749;47.850;9.002;2023-09-19T08:57:35;95908.47;;;27.75
67966;BMP280;54749;47.850;9.002;2023-09-19T09:00:05;95919.19;;;27.32
67966;BMP280;54749;47.850;9.002;2023-09-19T09:02:38;95905.84;;;27.11
67966;BMP280;54749;47.850;9.002;2023-09-19T09:05:11;95914.09;;;26.61
67966;BMP280;54749;47.850;9.002;2023-09-19T09:07:42;95920.06;;;26.07
67966;BMP280;54749;47.850;9.002;2023-09-19T09:10:11;95935.28;;;25.48
67966;BMP280;54749;47.850;9.002;2023-09-19T09:12:38;95934.34;;;25.24
67966;BMP280;54749;47.850;9.002;2023-09-19T09:15:08;95938.13;;;25.34
67966;BMP280;54749;47.850;9.002;2023-09-19T09:17:38;95924.59;;;25.32
67966;BMP280;54749;47.850;9.002;2023-09-19T09:20:06;95938.31;;;25.39
67966;BMP280;54749;47.850;9.002;2023-09-19T09:22:35;95926.34;;;25.38
67966;BMP280;54749;47.850;9.002;2023-09-19T09:25:04;95945.22;;;25.58
67966;BMP280;54749;47.850;9.002;2023-09-19T09:27:31;95915.06;;;25.69
67966;BMP280;54749;47.850;9.002;2023-09-19T09:30:01;95939.06;;;25.46
67966;BMP280;54749;47.850;9.002;2023-09-19T09:32:29;95928.00;;;26.12
67966;BMP280;54749;47.850;9.002;2023-09-19T09:35:01;95919.63;;;27.93
67966;BMP280;54749;47.850;9.002;2023-09-19T09:37:31;95910.63;;;28.24
67966;BMP280;54749;47.850;9.002;2023-09-19T09:40:00;95895.44;;;29.28
67966;BMP280;54749;47.850;9.002;2023-09-19T09:42:48;95908.19;;;28.63
67966;BMP280;54749;47.850;9.002;2023-09-19T09:45:18;95907.09;;;28.81
67966;BMP280;54749;47.850;9.002;2023-09-19T09:48:04;95917.84;;;28.84
67966;BMP280;54749;47.850;9.002;2023-09-19T09:50:48;95901.25;;;28.74
67966;BMP280;54749;47.850;9.002;2023-09-19T09:53:28;95905.00;;;28.38
67966;BMP280;54749;47.850;9.002;2023-09-19T09:56:06;95898.84;;;28.95
67966;BMP280;54749;47.850;9.002;2023-09-19T09:58:38;95880.97;;;30.73
67966;BMP280;54749;47.850;9.002;2023-09-19T10:01:07;95879.66;;;30.27
67966;BMP280;54749;47.850;9.002;2023-09-19T10:03:42;95895.69;;;30.20
67966;BMP280;54749;47.850;9.002;2023-09-19T10:06:22;95877.28;;;31.43
67966;BMP280;54749;47.850;9.002;2023-09-19T10:09:03;95868.03;;;31.99
67966;BMP280;54749;47.850;9.002;2023-09-19T10:11:45;95872.03;;;32.06
67966;BMP280;54749;47.850;9.002;2023-09-19T10:14:17;95858.72;;;33.04
67966;BMP280;54749;47.850;9.002;2023-09-19T10:16:53;95865.09;;;33.23
67966;BMP280;54749;47.850;9.002;2023-09-19T10:19:29;95858.75;;;33.59
67966;BMP280;54749;47.850;9.002;2023-09-19T10:21:58;95868.16;;;32.39
67966;BMP280;54749;47.850;9.002;2023-09-19T10:24:28;95866.75;;;31.80
67966;BMP280;54749;47.850;9.002;2023-09-19T10:26:56;95877.66;;;31.72
67966;BMP280;54749;47.850;9.002;2023-09-19T10:29:27;95876.53;;;30.58
67966;BMP280;54749;47.850;9.002;2023-09-19T10:31:58;95916.34;;;28.55
67966;BMP280;54749;47.850;9.002;2023-09-19T10:34:26;95920.72;;;27.75
67966;BMP280;54749;47.850;9.002;2023-09-19T10:36:55;95924.88;;;27.06
67966;BMP280;54749;47.850;9.002;2023-09-19T10:39:22;95923.72;;;26.24
67966;BMP280;54749;47.850;9.002;2023-09-19T10:41:51;95942.38;;;26.08
67966;BMP280;54749;47.850;9.002;2023-09-19T10:44:23;95909.47;;;28.20
67966;BMP280;54749;47.850;9.002;2023-09-19T10:46:52;95913.06;;;29.49
67966;BMP280;54749;47.850;9.002;2023-09-19T10:49:21;95904.41;;;28.87
67966;BMP280;54749;47.850;9.002;2023-09-19T10:51:52;95907.56;;;27.98
67966;BMP280;54749;47.850;9.002;2023-09-19T10:54:24;95917.19;;;28.27
67966;BMP280;54749;47.850;9.002;2023-09-19T10:56:54;95889.84;;;29.86
67966;BMP280;54749;47.850;9.002;2023-09-19T10:59:23;95891.25;;;30.47
67966;BMP280;54749;47.850;9.002;2023-09-19T11:01:53;95880.53;;;30.33
67966;BMP280;54749;47.850;9.002;2023-09-19T11:04:34;95885.28;;;29.54
67966;BMP280;54749;47.850;9.002;2023-09-19T11:07:04;95899.50;;;28.80
67966;BMP280;54749;47.850;9.002;2023-09-19T11:09:47;95899.38;;;27.84
67966;BMP280;54749;47.850;9.002;2023-09-19T11:26:41;95885.63;;;26.96
67966;BMP280;54749;47.850;9.002;2023-09-19T11:29:28;95881.00;;;26.98
67966;BMP280;54749;47.850;9.002;2023-09-19T11:31:57;95890.47;;;26.69
67966;BMP280;54749;47.850;9.002;2023-09-19T11:39:39;95892.31;;;26.38
67966;BMP280;54749;47.850;9.002;2023-09-19T11:42:43;95891.59;;;26.01
67966;BMP280;54749;47.850;9.002;2023-09-19T11:48:08;95883.84;;;26.25
67966;BMP280;54749;47.850;9.002;2023-09-19T11:50:36;95886.25;;;25.96
67966;BMP280;54749;47.850;9.002;2023-09-19T11:53:05;95880.72;;;25.80
67966;BMP280;54749;47.850;9.002;2023-09-19T11:55:33;95882.16;;;25.76
67966;BMP280;54749;47.850;9.002;2023-09-19T11:58:01;95872.59;;;25.83
67966;BMP280;54749;47.850;9.002;2023-09-19T12:00:29;95879.41;;;26.08
67966;BMP280;54749;47.850;9.002;2023-09-19T12:02:58;95872.97;;;25.80
67966;BMP280;54749;47.850;9.002;2023-09-19T12:05:29;95883.88;;;25.58
67966;BMP280;54749;47.850;9.002;2023-09-19T12:07:57;95881.59;;;25.31
67966;BMP280;54749;47.850;9.002;2023-09-19T12:10:24;95883.22;;;25.20
67966;BMP280;54749;47.850;9.002;2023-09-19T12:12:52;95887.22;;;25.10
67966;BMP280;54749;47.850;9.002;2023-09-19T12:15:23;95878.66;;;25.22
67966;BMP280;54749;47.850;9.002;2023-09-19T12:17:55;95862.06;;;25.35
67966;BMP280;54749;47.850;9.002;2023-09-19T12:20:22;95875.75;;;24.74
67966;BMP280;54749;47.850;9.002;2023-09-19T12:22:50;95887.91;;;24.29
67966;BMP280;54749;47.850;9.002;2023-09-19T12:25:17;95882.53;;;24.50
67966;BMP280;54749;47.850;9.002;2023-09-19T12:27:48;95873.00;;;24.57
67966;BMP280;54749;47.850;9.002;2023-09-19T12:30:32;95872.38;;;24.80
67966;BMP280;54749;47.850;9.002;2023-09-19T12:33:03;95885.72;;;24.26
67966;BMP280;54749;47.850;9.002;2023-09-19T12:35:32;95881.34;;;24.02
67966;BMP280;54749;47.850;9.002;2023-09-19T12:38:02;95886.47;;;23.95
67966;BMP280;54749;47.850;9.002;2023-09-19T12:40:32;95874.41;;;24.15
67966;BMP280;54749;47.850;9.002;2023-09-19T12:43:06;95883.91;;;24.21
67966;BMP280;54749;47.850;9.002;2023-09-19T12:45:35;95878.38;;;23.98
67966;BMP280;54749;47.850;9.002;2023-09-19T12:48:23;95880.44;;;23.70
67966;BMP280;54749;47.850;9.002;2023-09-19T12:51:07;95880.81;;;23.60
67966;BMP280;54749;47.850;9.002;2023-09-19T12:53:37;95884.19;;;23.54
67966;BMP280;54749;47.850;9.002;2023-09-19T12:56:13;95881.63;;;23.54
67966;BMP280;54749;47.850;9.002;2023-09-19T12:58:56;95879.19;;;23.40
67966;BMP280;54749;47.850;9.002;2023-09-19T13:01:26;95872.78;;;23.24
67966;BMP280;54749;47.850;9.002;2023-09-19T13:04:19;95869.44;;;23.36
67966;BMP280;54749;47.850;9.002;2023-09-19T13:06:51;95858.22;;;23.62
67966;BMP280;54749;47.850;9.002;2023-09-19T13:09:20;95859.81;;;23.63
67966;BMP280;54749;47.850;9.002;2023-09-19T13:11:48;95854.66;;;23.63
67966;BMP280;54749;47.850;9.002;2023-09-19T13:14:23;95842.00;;;24.00
67966;BMP280;54749;47.850;9.002;2023-09-19T13:19:45;95837.59;;;24.38
67966;BMP280;54749;47.850;9.002;2023-09-19T13:22:39;95845.16;;;24.21
67966;BMP280;54749;47.850;9.002;2023-09-19T13:25:15;95841.00;;;23.94
67966;BMP280;54749;47.850;9.002;2023-09-19T13:27:47;95844.72;;;23.73
67966;BMP280;54749;47.850;9.002;2023-09-19T13:30:20;95844.72;;;23.86
67966;BMP280;54749;47.850;9.002;2023-09-19T13:32:48;95838.84;;;23.98
67966;BMP280;54749;47.850;9.002;2023-09-19T13:35:16;95833.63;;;23.79
67966;BMP280;54749;47.850;9.002;2023-09-19T13:37:44;95838.97;;;23.77
67966;BMP280;54749;47.850;9.002;2023-09-19T13:40:18;95844.72;;;23.67
67966;BMP280;54749;47.850;9.002;2023-09-19T13:42:46;95834.78;;;23.57
67966;BMP280;54749;47.850;9.002;2023-09-19T13:45:13;95826.84;;;23.65
67966;BMP280;54749;47.850;9.002;2023-09-19T13:47:43;95813.72;;;23.60
67966;BMP280;54749;47.850;9.002;2023-09-19T13:50:10;95824.41;;;23.51
67966;BMP280;54749;47.850;9.002;2023-09-19T13:52:37;95818.50;;;23.51
67966;BMP280;54749;47.850;9.002;2023-09-19T13:55:05;95824.84;;;23.61
67966;BMP280;54749;47.850;9.002;2023-09-19T13:57:34;95818.53;;;23.76
67966;BMP280;54749;47.850;9.002;2023-09-19T14:00:01;95814.16;;;23.83
67966;BMP280;54749;47.850;9.002;2023-09-19T14:02:37;95809.97;;;23.82
67966;BMP280;54749;47.850;9.002;2023-09-19T14:05:06;95803.22;;;23.62
67966;BMP280;54749;47.850;9.002;2023-09-19T14:07:34;95803.56;;;23.40
67966;BMP280;54749;47.850;9.002;2023-09-19T14:10:01;95799.78;;;23.23
67966;BMP280;54749;47.850;9.002;2023-09-19T14:12:29;95808.09;;;23.25
67966;BMP280;54749;47.850;9.002;2023-09-19T14:14:57;95811.22;;;23.21
67966;BMP280;54749;47.850;9.002;2023-09-19T14:17:24;95807.81;;;23.08
67966;BMP280;54749;47.850;9.002;2023-09-19T14:19:52;95813.13;;;23.00
67966;BMP280;54749;47.850;9.002;2023-09-19T14:22:20;95814.91;;;22.93
67966;BMP280;54749;47.850;9.002;2023-09-19T14:24:47;95813.69;;;22.89
67966;BMP280;54749;47.850;9.002;2023-09-19T14:27:14;95807.47;;;22.78
67966;BMP280;54749;47.850;9.002;2023-09-19T14:29:42;95804.66;;;22.66
67966;BMP280;54749;47.850;9.002;2023-09-19T14:32:09;95803.28;;;22.70
67966;BMP280;54749;47.850;9.002;2023-09-19T14:34:36;95807.69;;;22.82
67966;BMP280;54749;47.850;9.002;2023-09-19T14:37:09;95801.63;;;22.96
67966;BMP280;54749;47.850;9.002;2023-09-19T14:39:37;95794.50;;;22.98
67966;BMP280;54749;47.850;9.002;2023-09-19T14:42:06;95803.66;;;23.07
67966;BMP280;54749;47.850;9.002;2023-09-19T14:44:35;95786.19;;;23.09
67966;BMP280;54749;47.850;9.002;2023-09-19T14:47:04;95788.19;;;23.13
67966;BMP280;54749;47.850;9.002;2023-09-19T14:49:35;95777.66;;;23.08
67966;BMP280;54749;47.850;9.002;2023-09-19T14:52:09;95779.88;;;23.17
67966;BMP280;54749;47.850;9.002;2023-09-19T14:54:36;95781.03;;;23.09
67966;BMP280;54749;47.850;9.002;2023-09-19T14:57:08;95784.94;;;22.92
67966;BMP280;54749;47.850;9.002;2023-09-19T14:59:36;95784.50;;;22.82
67966;BMP280;54749;47.850;9.002;2023-09-19T15:02:04;95776.41;;;22.92
67966;BMP280;54749;47.850;9.002;2023-09-19T15:04:32;95781.66;;;23.11
67966;BMP280;54749;47.850;9.002;2023-09-19T15:07:01;95757.06;;;23.21